Time;durP1;ratioP1;P1;durP2;ratioP2;P2;SDS_P1;SDS_P2;PMS_P1;PMS_P2;Temp;Humidity;BMP_temperature;BMP_pressure;BME280_temperature;BME280_humidity;BME280_pressure;Samples;Min_cycle;Max_cycle;Signal;HPM_P1;HPM_P2
2023/10/07 00:00:59;;;;;;;16.20;8.67;;;13.40;77.60;;;;;;5043299;28;20528;-80
2023/10/07 00:03:29;;;;;;;16.20;7.70;;;13.40;77.60;;;;;;5057770;28;20483;-80
2023/10/07 00:06:01;;;;;;;15.60;8.37;;;13.40;77.60;;;;;;5060373;28;20535;-82
2023/10/07 00:08:29;;;;;;;14.80;6.87;;;13.40;77.70;;;;;;5060059;28;21230;-83
2023/10/07 00:10:58;;;;;;;17.33;7.87;;;13.40;77.70;;;;;;5053979;28;20474;-78
2023/10/07 00:13:31;;;;;;;16.37;8.03;;;13.50;77.70;;;;;;5061397;28;20457;-79
2023/10/07 00:16:00;;;;;;;18.13;9.03;;;13.50;77.70;;;;;;5051742;28;20469;-81
2023/10/07 00:18:34;;;;;;;24.20;8.60;;;13.50;77.60;;;;;;5057401;28;20951;-82
2023/10/07 00:21:04;;;;;;;16.23;7.40;;;13.50;77.50;;;;;;5058926;28;20529;-81
2023/10/07 00:23:35;;;;;;;15.00;7.43;;;13.50;77.50;;;;;;5058424;28;21080;-82
2023/10/07 00:26:09;;;;;;;14.77;7.40;;;13.50;77.50;;;;;;5065053;28;20453;-79
2023/10/07 00:28:54;;;;;;;17.73;8.00;;;13.50;77.50;;;;;;5048086;28;20495;-79
2023/10/07 00:31:27;;;;;;;14.40;7.50;;;13.50;77.60;;;;;;5046337;28;20479;-81
2023/10/07 00:34:04;;;;;;;14.70;6.73;;;13.50;77.60;;;;;;5063263;28;20453;-80
2023/10/07 00:36:42;;;;;;;15.73;8.17;;;13.60;77.60;;;;;;5048374;28;20456;-82
2023/10/07 00:39:19;;;;;;;16.80;7.77;;;13.60;77.50;;;;;;5059083;28;20809;-79
2023/10/07 00:41:50;;;;;;;14.03;7.77;;;13.60;77.40;;;;;;5059675;28;20466;-80
2023/10/07 00:44:22;;;;;;;17.40;7.80;;;13.50;77.40;;;;;;5050810;28;20534;-79
2023/10/07 00:47:08;;;;;;;16.90;7.27;;;13.50;77.30;;;;;;5048051;28;20471;-80
2023/10/07 00:49:41;;;;;;;19.40;7.57;;;13.50;77.40;;;;;;5046015;28;20465;-81
2023/10/07 00:52:13;;;;;;;19.20;8.03;;;13.40;77.40;;;;;;5043131;28;20472;-82
2023/10/07 00:54:52;;;;;;;18.73;7.10;;;13.40;77.50;;;;;;5044139;28;20444;-79
2023/10/07 00:57:35;;;;;;;19.40;6.83;;;13.40;77.60;;;;;;5050456;28;20464;-80
2023/10/07 01:00:13;;;;;;;16.70;8.03;;;13.50;77.70;;;;;;5061905;28;20990;-81
2023/10/07 01:02:45;;;;;;;16.77;7.13;;;13.50;77.70;;;;;;5050327;28;20484;-82
2023/10/07 01:05:21;;;;;;;16.03;7.03;;;13.50;77.60;;;;;;5048695;28;20454;-80
2023/10/07 01:07:58;;;;;;;15.87;7.80;;;13.50;77.60;;;;;;5066945;28;20444;-80
2023/10/07 01:10:31;;;;;;;16.13;7.93;;;13.50;77.50;;;;;;5046189;28;21052;-78
2023/10/07 01:13:03;;;;;;;30.70;8.30;;;13.40;77.40;;;;;;5045779;28;20459;-79
2023/10/07 01:15:35;;;;;;;18.67;7.83;;;13.40;77.40;;;;;;5052282;28;20456;-81
2023/10/07 01:18:05;;;;;;;28.27;8.93;;;13.40;77.40;;;;;;5059211;28;20468;-82
2023/10/07 01:20:48;;;;;;;16.10;8.10;;;13.30;77.30;;;;;;5060571;28;20473;-81
2023/10/07 01:23:23;;;;;;;14.60;7.23;;;13.30;77.40;;;;;;5063348;28;20558;-81
2023/10/07 01:25:52;;;;;;;13.17;7.13;;;13.20;77.40;;;;;;5034103;28;21041;-80
2023/10/07 01:28:22;;;;;;;19.20;8.47;;;13.20;77.40;;;;;;5027602;28;21007;-81
2023/10/07 01:31:07;;;;;;;18.83;8.90;;;13.20;77.40;;;;;;5038903;28;20582;-81
2023/10/07 01:33:40;;;;;;;19.80;8.23;;;13.10;77.50;;;;;;5049849;28;20474;-82
2023/10/07 01:36:18;;;;;;;17.20;8.30;;;13.10;77.50;;;;;;5067516;28;20460;-78
2023/10/07 01:38:51;;;;;;;18.50;7.83;;;13.10;77.50;;;;;;5049658;28;20981;-81
2023/10/07 01:41:21;;;;;;;13.63;7.57;;;13.10;77.40;;;;;;5059001;28;20535;-81
2023/10/07 01:43:59;;;;;;;16.30;7.83;;;13.10;77.50;;;;;;5049286;28;20973;-80
2023/10/07 01:46:30;;;;;;;15.53;7.43;;;13.10;77.40;;;;;;5049320;28;20467;-81
2023/10/07 01:49:06;;;;;;;18.43;8.67;;;13.00;77.30;;;;;;5046095;28;20485;-81
2023/10/07 01:51:36;;;;;;;16.73;7.53;;;13.00;77.20;;;;;;5053103;28;20870;-80
2023/10/07 01:54:08;;;;;;;18.73;8.10;;;12.90;77.20;;;;;;5045652;28;20472;-81
2023/10/07 01:56:39;;;;;;;15.60;8.10;;;12.90;77.30;;;;;;5066009;28;20556;-81
2023/10/07 01:59:18;;;;;;;15.30;7.03;;;12.90;77.30;;;;;;5054962;28;20550;-80
2023/10/07 02:01:58;;;;;;;15.93;7.67;;;12.90;77.30;;;;;;5053540;28;20512;-79
2023/10/07 02:04:27;;;;;;;17.00;8.00;;;12.80;77.10;;;;;;5061337;28;20473;-80
2023/10/07 02:06:58;;;;;;;18.87;8.47;;;12.70;77.20;;;;;;5049468;28;20461;-81
2023/10/07 02:09:34;;;;;;;15.40;7.90;;;12.70;77.40;;;;;;5031950;28;20517;-81
2023/10/07 02:12:08;;;;;;;17.40;7.90;;;12.70;77.40;;;;;;5024956;28;20984;-82
2023/10/07 02:14:40;;;;;;;15.30;8.10;;;12.60;77.40;;;;;;5049527;28;20452;-81
2023/10/07 02:17:09;;;;;;;14.63;7.57;;;12.60;77.30;;;;;;5056843;28;21124;-81
2023/10/07 02:19:43;;;;;;;21.10;8.33;;;12.50;77.40;;;;;;5065240;28;20467;-80
2023/10/07 02:22:22;;;;;;;14.97;8.10;;;12.40;77.50;;;;;;5049636;28;20473;-81
2023/10/07 02:25:03;;;;;;;18.53;8.40;;;12.40;77.70;;;;;;5047480;28;20482;-82
2023/10/07 02:27:41;;;;;;;18.47;8.43;;;12.40;77.80;;;;;;5058786;28;21276;-80
2023/10/07 02:30:19;;;;;;;18.47;7.60;;;12.40;77.80;;;;;;5048014;28;20467;-80
2023/10/07 02:32:50;;;;;;;18.40;8.60;;;12.40;77.70;;;;;;5052243;28;20464;-82
2023/10/07 02:35:21;;;;;;;17.90;7.70;;;12.30;77.90;;;;;;5066732;28;20882;-81
2023/10/07 02:37:50;;;;;;;20.33;8.60;;;12.30;77.70;;;;;;5040572;28;20841;-80
2023/10/07 02:40:22;;;;;;;15.40;8.03;;;12.30;77.90;;;;;;5044625;28;20886;-80
2023/10/07 02:42:54;;;;;;;16.37;7.70;;;12.20;78.00;;;;;;5046777;28;21170;-82
2023/10/07 02:45:28;;;;;;;15.97;7.60;;;12.30;78.00;;;;;;5038841;28;20462;-80
2023/10/07 02:48:01;;;;;;;19.53;7.43;;;12.30;78.00;;;;;;5050528;28;20458;-82
2023/10/07 02:50:31;;;;;;;18.17;7.70;;;12.30;78.10;;;;;;5045836;28;20462;-81
2023/10/07 02:53:11;;;;;;;20.00;9.13;;;12.30;78.20;;;;;;5044273;28;20554;-82
2023/10/07 02:55:54;;;;;;;16.23;7.43;;;12.30;78.00;;;;;;5048092;28;20466;-81
2023/10/07 02:58:32;;;;;;;14.57;7.80;;;12.30;78.00;;;;;;5043602;28;20487;-81
2023/10/07 03:01:14;;;;;;;17.20;8.60;;;12.40;78.00;;;;;;5040169;28;21079;-81
2023/10/07 03:03:48;;;;;;;18.20;7.60;;;12.40;77.90;;;;;;5057948;28;20557;-81
2023/10/07 03:06:19;;;;;;;20.03;7.77;;;12.30;77.70;;;;;;5050496;28;20982;-81
2023/10/07 03:08:51;;;;;;;17.20;9.17;;;12.20;77.70;;;;;;5039030;28;20462;-78
2023/10/07 03:11:22;;;;;;;18.00;7.70;;;12.20;77.70;;;;;;5044969;28;20523;-82
2023/10/07 03:13:58;;;;;;;25.87;8.50;;;12.20;77.90;;;;;;5044059;28;20460;-81
2023/10/07 03:16:29;;;;;;;15.00;8.00;;;12.20;78.00;;;;;;5028270;28;20458;-81
2023/10/07 03:19:07;;;;;;;14.63;6.83;;;12.20;78.00;;;;;;5065579;28;21269;-82
2023/10/07 03:21:55;;;;;;;17.30;8.03;;;12.20;77.90;;;;;;5069561;28;21038;-79
2023/10/07 03:24:41;;;;;;;18.93;9.03;;;12.20;78.10;;;;;;5047937;28;21202;-80
2023/10/07 03:27:25;;;;;;;18.40;8.27;;;12.20;78.10;;;;;;5054473;28;20462;-80
2023/10/07 03:30:12;;;;;;;19.10;9.17;;;12.20;78.00;;;;;;5060376;28;20470;-81
2023/10/07 03:32:57;;;;;;;19.37;8.80;;;12.20;78.00;;;;;;5055139;28;20914;-80
2023/10/07 03:38:11;;;;;;;17.60;8.57;;;12.10;78.00;;;;;;5053140;28;20976;-81
2023/10/07 03:40:39;;;;;;;20.03;8.70;;;12.10;78.00;;;;;;5046123;28;20454;-79
2023/10/07 03:43:09;;;;;;;19.17;8.70;;;12.10;78.00;;;;;;5037613;28;20520;-80
2023/10/07 03:45:40;;;;;;;17.93;8.50;;;12.00;77.90;;;;;;5054500;28;20473;-82
2023/10/07 03:48:23;;;;;;;18.10;8.33;;;12.00;77.90;;;;;;5054839;28;20489;-80
2023/10/07 03:50:59;;;;;;;18.60;8.20;;;12.00;78.00;;;;;;5048885;28;20462;-79
2023/10/07 03:53:31;;;;;;;18.70;8.30;;;11.90;77.80;;;;;;5057027;28;20477;-81
2023/10/07 03:56:06;;;;;;;14.93;7.90;;;11.90;77.90;;;;;;5064299;28;20450;-82
2023/10/07 03:58:41;;;;;;;16.93;8.77;;;11.80;78.00;;;;;;5043564;28;20894;-82
2023/10/07 04:01:16;;;;;;;15.80;7.90;;;11.80;78.00;;;;;;5063351;28;20568;-80
2023/10/07 04:03:47;;;;;;;15.90;8.03;;;11.80;77.80;;;;;;5060989;28;20456;-81
2023/10/07 04:06:17;;;;;;;18.73;8.17;;;11.70;77.80;;;;;;5061501;28;20452;-80
2023/10/07 04:08:47;;;;;;;17.93;8.17;;;11.60;77.80;;;;;;5050918;28;20453;-78
2023/10/07 04:11:16;;;;;;;17.00;8.00;;;11.50;77.90;;;;;;5056808;28;20445;-82
2023/10/07 04:13:53;;;;;;;16.60;8.00;;;11.50;77.90;;;;;;5059200;28;20457;-80
2023/10/07 04:16:24;;;;;;;20.03;8.50;;;11.50;78.00;;;;;;5059931;28;21034;-80
2023/10/07 04:19:01;;;;;;;14.93;7.07;;;11.40;78.00;;;;;;5048772;28;20873;-82
2023/10/07 04:21:30;;;;;;;17.37;8.30;;;11.50;78.10;;;;;;5044080;28;20472;-81
2023/10/07 04:24:01;;;;;;;16.47;8.30;;;11.50;78.10;;;;;;5036310;28;20443;-81
2023/10/07 04:26:29;;;;;;;15.97;7.30;;;11.50;78.20;;;;;;5050831;28;20548;-81
2023/10/07 04:28:59;;;;;;;19.03;7.57;;;11.50;78.20;;;;;;5067655;28;20462;-80
2023/10/07 04:31:34;;;;;;;16.70;8.10;;;11.50;78.10;;;;;;5054868;28;20479;-81
2023/10/07 04:34:03;;;;;;;14.73;6.43;;;11.60;78.00;;;;;;5065560;28;20445;-79
2023/10/07 04:36:33;;;;;;;16.43;7.80;;;11.50;77.80;;;;;;5059942;28;20679;-79
2023/10/07 04:39:17;;;;;;;15.47;7.13;;;11.50;77.70;;;;;;5064089;28;20459;-79
2023/10/07 04:41:56;;;;;;;22.67;7.97;;;11.50;77.80;;;;;;5062664;28;20518;-80
2023/10/07 04:47:29;;;;;;;19.20;8.70;;;11.40;77.60;;;;;;5051543;28;20466;-82
2023/10/07 04:50:05;;;;;;;20.73;8.37;;;11.40;77.80;;;;;;5062414;28;20445;-82
2023/10/07 04:52:33;;;;;;;15.77;7.60;;;11.40;77.80;;;;;;5056312;28;20469;-79
2023/10/07 04:55:02;;;;;;;17.60;8.37;;;11.40;77.80;;;;;;5062097;28;20461;-80
2023/10/07 04:57:43;;;;;;;17.20;8.10;;;11.40;77.80;;;;;;5048714;28;20496;-81
2023/10/07 05:00:27;;;;;;;16.37;8.13;;;11.50;77.80;;;;;;5058995;28;20447;-81
2023/10/07 05:02:57;;;;;;;15.90;7.80;;;11.50;77.80;;;;;;5058724;28;20453;-82
2023/10/07 05:05:29;;;;;;;17.43;7.57;;;11.50;77.80;;;;;;5057416;28;20469;-82
2023/10/07 05:07:58;;;;;;;14.83;7.50;;;11.50;77.90;;;;;;5067197;28;20884;-82
2023/10/07 05:10:29;;;;;;;16.67;6.90;;;11.60;77.80;;;;;;5061685;28;20469;-81
2023/10/07 05:13:01;;;;;;;16.60;8.23;;;11.60;77.80;;;;;;5054527;28;20461;-81
2023/10/07 05:15:31;;;;;;;21.07;9.10;;;11.60;77.70;;;;;;5047890;28;20457;-79
2023/10/07 05:18:01;;;;;;;16.37;7.93;;;11.60;77.70;;;;;;5051695;28;20442;-79
2023/10/07 05:20:32;;;;;;;15.63;8.07;;;11.50;77.80;;;;;;5055495;28;20983;-81
2023/10/07 05:23:03;;;;;;;13.07;7.60;;;11.60;77.80;;;;;;5063339;28;20472;-80
2023/10/07 05:25:35;;;;;;;14.23;7.03;;;11.60;78.00;;;;;;5046741;28;20505;-82
2023/10/07 05:28:10;;;;;;;16.47;8.50;;;11.60;78.00;;;;;;5062332;28;20507;-80
2023/10/07 05:30:44;;;;;;;17.73;7.63;;;11.60;78.10;;;;;;5068164;28;20469;-82
2023/10/07 05:33:13;;;;;;;18.03;8.20;;;11.60;78.10;;;;;;5061696;28;20881;-81
2023/10/07 05:35:43;;;;;;;16.97;8.57;;;11.60;78.20;;;;;;5050377;28;20441;-81
2023/10/07 05:38:11;;;;;;;17.60;9.20;;;11.60;78.30;;;;;;5049539;28;20816;-81
2023/10/07 05:40:40;;;;;;;18.57;9.07;;;11.60;78.50;;;;;;5057175;28;20882;-80
2023/10/07 05:43:08;;;;;;;19.87;8.70;;;11.60;78.60;;;;;;5058937;28;20500;-82
2023/10/07 05:45:40;;;;;;;16.50;8.73;;;11.70;78.70;;;;;;5057422;28;20477;-80
2023/10/07 05:48:10;;;;;;;23.90;9.00;;;11.70;78.70;;;;;;5064515;28;21130;-80
2023/10/07 05:50:39;;;;;;;16.27;8.20;;;11.70;78.70;;;;;;5056775;28;20454;-82
2023/10/07 05:53:10;;;;;;;17.77;8.23;;;11.70;78.70;;;;;;5059304;28;20520;-80
2023/10/07 05:55:39;;;;;;;18.30;8.73;;;11.70;78.80;;;;;;5049542;28;20956;-80
2023/10/07 05:58:07;;;;;;;17.60;8.57;;;11.80;78.90;;;;;;5050543;28;21025;-79
2023/10/07 06:00:36;;;;;;;15.00;8.97;;;11.70;79.00;;;;;;5043092;28;20496;-80
2023/10/07 06:03:07;;;;;;;19.90;9.00;;;11.80;79.30;;;;;;5046458;28;20486;-82
2023/10/07 06:05:37;;;;;;;15.17;7.90;;;11.80;79.50;;;;;;5044146;28;20474;-81
2023/10/07 06:08:10;;;;;;;34.87;8.77;;;11.90;79.60;;;;;;5062044;28;20462;-80
2023/10/07 06:10:39;;;;;;;21.73;8.63;;;12.00;79.60;;;;;;5048123;28;20459;-81
2023/10/07 06:13:09;;;;;;;16.27;8.27;;;12.00;79.70;;;;;;5063304;28;20494;-81
2023/10/07 06:15:38;;;;;;;17.57;8.20;;;12.10;79.80;;;;;;5062353;28;20772;-80
2023/10/07 06:18:07;;;;;;;15.83;8.00;;;12.20;79.80;;;;;;5061528;28;20459;-82
2023/10/07 06:20:38;;;;;;;13.53;7.23;;;12.40;79.90;;;;;;5062833;28;20468;-79
2023/10/07 06:23:13;;;;;;;19.50;7.30;;;12.40;79.90;;;;;;5058640;28;20873;-81
2023/10/07 06:25:48;;;;;;;17.70;6.87;;;12.60;80.00;;;;;;5065664;28;20509;-82
2023/10/07 06:28:29;;;;;;;16.13;8.60;;;12.70;80.00;;;;;;5063728;28;20465;-81
2023/10/07 06:31:10;;;;;;;20.43;7.67;;;12.70;80.00;;;;;;5057487;28;20506;-81
2023/10/07 06:33:59;;;;;;;13.53;6.87;;;12.80;80.00;;;;;;5061976;28;21396;-82
2023/10/07 06:36:30;;;;;;;16.00;6.40;;;12.90;80.10;;;;;;5047555;28;20470;-80
2023/10/07 06:39:01;;;;;;;16.30;7.50;;;13.00;80.10;;;;;;5041386;28;20451;-81
2023/10/07 06:41:30;;;;;;;14.20;7.30;;;13.00;80.10;;;;;;5062832;28;20962;-81
2023/10/07 06:44:03;;;;;;;13.20;7.47;;;13.10;80.10;;;;;;5061677;28;20489;-80
2023/10/07 06:46:40;;;;;;;15.03;6.87;;;13.20;80.10;;;;;;5063566;28;21171;-81
2023/10/07 06:49:16;;;;;;;20.67;7.30;;;13.20;80.10;;;;;;5049290;28;20463;-81
2023/10/07 06:51:45;;;;;;;16.17;7.23;;;13.20;80.30;;;;;;5049240;28;20913;-83
2023/10/07 06:54:14;;;;;;;19.00;7.20;;;13.30;80.20;;;;;;5045930;28;20567;-83
2023/10/07 06:56:45;;;;;;;17.23;8.33;;;13.40;80.30;;;;;;5051298;28;20472;-81
2023/10/07 06:59:15;;;;;;;18.43;7.40;;;13.40;80.30;;;;;;5058937;28;20468;-82
2023/10/07 07:01:54;;;;;;;11.60;6.43;;;13.50;80.30;;;;;;5058851;28;20504;-82
2023/10/07 07:04:25;;;;;;;14.03;6.50;;;13.50;80.30;;;;;;5062245;28;20482;-82
2023/10/07 07:07:10;;;;;;;18.83;8.03;;;13.50;80.40;;;;;;5052614;28;20512;-81
2023/10/07 07:09:43;;;;;;;17.03;8.83;;;13.60;80.40;;;;;;5056764;28;21187;-83
2023/10/07 07:12:16;;;;;;;16.20;8.53;;;13.60;80.50;;;;;;5056397;28;20457;-81
2023/10/07 07:14:51;;;;;;;15.33;6.50;;;13.60;80.50;;;;;;5062770;28;20468;-81
2023/10/07 07:17:30;;;;;;;16.80;8.40;;;13.70;80.60;;;;;;5056511;28;20837;-80
2023/10/07 07:22:45;;;;;;;22.03;8.77;;;13.80;80.70;;;;;;5046749;28;20466;-78
2023/10/07 07:25:22;;;;;;;13.93;7.13;;;13.80;80.70;;;;;;5044949;28;20964;-82
2023/10/07 07:27:50;;;;;;;15.07;6.70;;;13.90;80.80;;;;;;5058275;28;20480;-80
2023/10/07 07:30:29;;;;;;;14.80;7.17;;;13.90;80.80;;;;;;5046155;28;20483;-81
2023/10/07 07:33:06;;;;;;;14.60;6.80;;;14.00;80.90;;;;;;5041455;28;20499;-79
2023/10/07 07:35:40;;;;;;;14.17;6.47;;;14.00;81.00;;;;;;5061300;28;20446;-82
2023/10/07 07:38:30;;;;;;;13.23;6.07;;;14.10;81.00;;;;;;5042490;28;20465;-81
2023/10/07 07:41:04;;;;;;;13.80;6.50;;;14.20;81.00;;;;;;5055498;28;20452;-80
2023/10/07 07:43:33;;;;;;;14.40;6.13;;;14.20;81.00;;;;;;5050797;28;20456;-82
2023/10/07 07:46:15;;;;;;;17.70;6.80;;;14.30;81.10;;;;;;5062550;28;20480;-80
2023/10/07 07:48:52;;;;;;;11.57;5.47;;;14.30;81.10;;;;;;5045163;28;20979;-81
2023/10/07 07:51:25;;;;;;;11.43;5.70;;;14.40;81.10;;;;;;5042183;28;20457;-80
2023/10/07 07:53:53;;;;;;;20.00;6.33;;;14.40;81.00;;;;;;5048147;28;20452;-80
2023/10/07 07:56:24;;;;;;;13.30;6.70;;;14.50;81.00;;;;;;5060816;28;20475;-80
2023/10/07 07:58:52;;;;;;;13.73;6.00;;;14.60;81.00;;;;;;5057344;28;20532;-80
2023/10/07 08:01:22;;;;;;;14.30;6.27;;;14.60;81.00;;;;;;5058066;28;20492;-81
2023/10/07 08:03:50;;;;;;;13.30;6.20;;;14.70;81.00;;;;;;5059319;28;20449;-79
2023/10/07 08:06:21;;;;;;;12.67;6.47;;;14.70;81.10;;;;;;5050915;28;20478;-82
2023/10/07 08:08:53;;;;;;;13.37;6.00;;;14.70;81.10;;;;;;5058409;28;20536;-80
2023/10/07 08:11:21;;;;;;;12.37;5.43;;;14.80;81.10;;;;;;5043868;28;20517;-80
2023/10/07 08:13:49;;;;;;;13.63;5.70;;;14.80;81.10;;;;;;5047638;28;20449;-82
2023/10/07 08:16:18;;;;;;;10.30;5.43;;;14.90;81.10;;;;;;5061924;28;20450;-80
2023/10/07 08:18:50;;;;;;;14.90;5.67;;;14.90;81.10;;;;;;5039455;28;20459;-81
2023/10/07 08:21:19;;;;;;;11.30;5.40;;;15.00;81.10;;;;;;5057721;28;20468;-83
2023/10/07 08:23:51;;;;;;;13.50;5.53;;;15.00;81.00;;;;;;5053999;28;20451;-82
2023/10/07 08:26:22;;;;;;;19.40;6.70;;;15.00;80.90;;;;;;5044544;28;20889;-82
2023/10/07 08:29:00;;;;;;;12.77;5.30;;;15.10;80.90;;;;;;5062461;28;20458;-80
2023/10/07 08:31:39;;;;;;;16.03;6.80;;;15.10;80.70;;;;;;5046435;28;21026;-80
2023/10/07 08:34:11;;;;;;;12.50;5.93;;;15.10;80.70;;;;;;5047338;28;20461;-81
2023/10/07 08:36:47;;;;;;;14.23;5.67;;;15.10;80.60;;;;;;5055270;28;20536;-81
2023/10/07 08:39:17;;;;;;;12.87;5.67;;;15.10;80.60;;;;;;5037667;28;20457;-81
2023/10/07 08:41:52;;;;;;;15.80;5.40;;;15.20;80.60;;;;;;5064260;28;21097;-80
2023/10/07 08:44:29;;;;;;;12.53;5.30;;;15.20;80.50;;;;;;5049799;28;21085;-83
2023/10/07 08:47:03;;;;;;;12.77;5.97;;;15.20;80.50;;;;;;5062908;28;20481;-81
2023/10/07 08:49:35;;;;;;;12.70;4.83;;;15.20;80.50;;;;;;5062125;28;20504;-82
2023/10/07 08:52:08;;;;;;;10.03;5.57;;;15.20;80.50;;;;;;5062772;28;20548;-82
2023/10/07 08:54:38;;;;;;;13.30;5.10;;;15.20;80.50;;;;;;5045514;28;20523;-81
2023/10/07 08:57:15;;;;;;;12.40;5.73;;;15.20;80.50;;;;;;5048158;28;20449;-79
2023/10/07 08:59:49;;;;;;;19.07;6.17;;;15.20;80.40;;;;;;5065374;28;20446;-78
2023/10/07 09:02:26;;;;;;;10.97;5.33;;;15.30;80.40;;;;;;5066338;28;20859;-82
2023/10/07 09:04:57;;;;;;;14.73;5.50;;;15.30;80.40;;;;;;5052455;28;20446;-79
2023/10/07 09:07:32;;;;;;;13.43;6.10;;;15.30;80.40;;;;;;5056601;28;20867;-82
2023/10/07 09:10:10;;;;;;;16.40;6.70;;;15.30;80.40;;;;;;5064888;28;20488;-79
2023/10/07 09:12:46;;;;;;;13.40;5.30;;;15.30;80.40;;;;;;5062412;28;20482;-81
2023/10/07 09:15:25;;;;;;;13.97;5.67;;;15.40;80.40;;;;;;5063060;28;20446;-82
2023/10/07 09:18:01;;;;;;;10.83;5.93;;;15.40;80.40;;;;;;5063933;28;20434;-80
2023/10/07 09:20:31;;;;;;;13.83;5.67;;;15.40;80.40;;;;;;5065352;28;20563;-81
2023/10/07 09:23:07;;;;;;;15.47;5.67;;;15.50;80.40;;;;;;5063891;28;20504;-80
2023/10/07 09:25:35;;;;;;;12.37;5.87;;;15.50;80.40;;;;;;5067179;28;20502;-79
2023/10/07 09:28:07;;;;;;;17.83;6.17;;;15.50;80.40;;;;;;5053648;28;20474;-81
2023/10/07 09:30:38;;;;;;;13.30;6.10;;;15.60;80.20;;;;;;5057712;28;20502;-83
2023/10/07 09:33:13;;;;;;;11.27;5.00;;;15.60;80.20;;;;;;5042025;28;20482;-79
2023/10/07 09:35:43;;;;;;;13.47;5.23;;;15.60;80.10;;;;;;5043166;28;20461;-81
2023/10/07 09:38:24;;;;;;;14.07;6.47;;;15.70;80.10;;;;;;5057047;28;20505;-80
2023/10/07 09:41:11;;;;;;;14.10;5.77;;;15.70;80.00;;;;;;5048700;28;20885;-81
2023/10/07 09:43:47;;;;;;;11.73;6.00;;;15.70;80.00;;;;;;5062898;28;20452;-82
2023/10/07 09:46:15;;;;;;;15.83;5.63;;;15.70;79.90;;;;;;5045760;28;20442;-81
2023/10/07 09:49:03;;;;;;;27.83;8.40;;;15.70;79.80;;;;;;5061236;28;20513;-83
2023/10/07 09:51:41;;;;;;;17.33;6.50;;;15.70;79.90;;;;;;5039107;28;20512;-81
2023/10/07 09:54:22;;;;;;;20.03;6.60;;;15.80;80.00;;;;;;5063967;28;20943;-80
2023/10/07 09:57:20;;;;;;;20.30;6.70;;;15.80;79.90;;;;;;5064788;28;20455;-80
2023/10/07 10:00:32;;;;;;;16.07;6.47;;;15.90;80.00;;;;;;5058553;28;20814;-81
2023/10/07 10:03:12;;;;;;;14.13;6.20;;;15.90;80.00;;;;;;5050136;28;21035;-79
2023/10/07 10:05:52;;;;;;;10.33;5.20;;;16.00;80.00;;;;;;5061288;28;20465;-79
2023/10/07 10:08:44;;;;;;;13.90;4.70;;;16.00;80.10;;;;;;5046830;28;20557;-81
2023/10/07 10:11:30;;;;;;;16.40;6.20;;;16.10;80.00;;;;;;5061050;28;20816;-82
2023/10/07 10:14:18;;;;;;;15.53;5.63;;;16.20;80.00;;;;;;5065542;28;20449;-80
2023/10/07 10:16:54;;;;;;;12.87;5.83;;;16.20;79.90;;;;;;5048830;28;20507;-78
2023/10/07 10:19:25;;;;;;;14.37;6.00;;;16.30;79.80;;;;;;5045924;28;20490;-83
2023/10/07 10:21:54;;;;;;;11.77;5.17;;;16.40;79.70;;;;;;5064177;28;20557;-82
2023/10/07 10:24:24;;;;;;;11.00;5.60;;;16.40;79.60;;;;;;5062423;28;20457;-81
2023/10/07 10:27:02;;;;;;;16.10;5.43;;;16.40;79.60;;;;;;5050921;28;20457;-81
2023/10/07 10:29:34;;;;;;;17.07;6.13;;;16.40;79.50;;;;;;5058539;28;20528;-81
2023/10/07 10:32:07;;;;;;;17.63;5.67;;;16.50;79.40;;;;;;5051893;28;20898;-80
2023/10/07 10:34:36;;;;;;;10.40;5.40;;;16.50;79.50;;;;;;5057381;28;20519;-81
2023/10/07 10:37:06;;;;;;;15.60;5.93;;;16.50;79.40;;;;;;5049140;28;20454;-81
2023/10/07 10:39:34;;;;;;;11.47;5.17;;;16.60;79.20;;;;;;5038705;28;20513;-82
2023/10/07 10:42:13;;;;;;;17.50;6.03;;;16.60;79.20;;;;;;5063255;28;20486;-80
2023/10/07 10:44:46;;;;;;;10.33;4.60;;;16.60;79.20;;;;;;5064765;28;20536;-79
2023/10/07 10:47:18;;;;;;;10.43;5.30;;;16.60;79.30;;;;;;5055764;28;20462;-83
2023/10/07 10:49:47;;;;;;;10.60;5.13;;;16.70;79.20;;;;;;5064047;28;20856;-80
2023/10/07 10:52:18;;;;;;;11.63;5.27;;;16.70;79.20;;;;;;5066113;28;20528;-84
2023/10/07 10:54:46;;;;;;;17.33;5.13;;;16.70;79.00;;;;;;5058125;28;20465;-82
2023/10/07 10:57:19;;;;;;;14.50;5.50;;;16.80;79.00;;;;;;5046570;28;20811;-83
2023/10/07 10:59:49;;;;;;;11.77;4.90;;;16.80;78.90;;;;;;5060360;28;20544;-82
2023/10/07 11:02:21;;;;;;;18.20;5.60;;;16.80;79.00;;;;;;5064001;28;20493;-82
2023/10/07 11:04:51;;;;;;;14.83;5.93;;;16.90;78.90;;;;;;5060777;28;20461;-82
2023/10/07 11:07:20;;;;;;;17.63;5.50;;;16.90;78.90;;;;;;5047884;28;20455;-82
2023/10/07 11:09:51;;;;;;;13.23;4.67;;;16.90;78.80;;;;;;5045386;28;20484;-83
2023/10/07 11:12:26;;;;;;;13.97;5.40;;;17.00;78.80;;;;;;5063874;28;20455;-82
2023/10/07 11:15:12;;;;;;;14.70;5.53;;;17.00;78.80;;;;;;5040507;28;20484;-81
2023/10/07 11:17:52;;;;;;;14.43;5.50;;;17.00;78.90;;;;;;5068661;28;21312;-80
2023/10/07 11:20:24;;;;;;;11.87;5.83;;;17.10;78.90;;;;;;5052650;28;20497;-82
2023/10/07 11:22:53;;;;;;;13.43;5.53;;;17.10;79.00;;;;;;5051748;28;20469;-79
2023/10/07 11:25:25;;;;;;;12.20;5.87;;;17.10;78.90;;;;;;5061079;28;20481;-80
2023/10/07 11:27:54;;;;;;;17.63;5.80;;;17.10;78.90;;;;;;5062379;28;20498;-83
2023/10/07 11:30:23;;;;;;;14.57;5.70;;;17.10;78.90;;;;;;5042289;28;20924;-82
2023/10/07 11:32:54;;;;;;;12.30;6.37;;;17.20;78.90;;;;;;5054087;28;20468;-81
2023/10/07 11:35:27;;;;;;;10.50;4.93;;;17.20;78.90;;;;;;5043318;28;20578;-82
2023/10/07 11:37:58;;;;;;;10.90;5.77;;;17.20;79.00;;;;;;5064756;28;20458;-80
2023/10/07 11:40:27;;;;;;;11.37;5.47;;;17.20;79.10;;;;;;5056558;28;20500;-81
2023/10/07 11:42:56;;;;;;;11.80;5.23;;;17.30;79.10;;;;;;5048550;28;20485;-81
2023/10/07 11:45:26;;;;;;;12.20;5.20;;;17.30;79.10;;;;;;5057727;28;20745;-81
2023/10/07 11:47:57;;;;;;;10.50;4.60;;;17.30;79.10;;;;;;5049076;28;20550;-79
2023/10/07 11:50:27;;;;;;;11.53;4.50;;;17.40;79.20;;;;;;5060633;28;20454;-82
2023/10/07 11:52:55;;;;;;;9.20;4.40;;;17.40;79.20;;;;;;5063422;28;20460;-82
2023/10/07 11:55:23;;;;;;;12.20;5.70;;;17.40;79.10;;;;;;5059513;28;20467;-82
2023/10/07 11:57:52;;;;;;;16.20;5.07;;;17.50;79.10;;;;;;5059262;28;20583;-80
2023/10/07 12:00:27;;;;;;;12.30;5.07;;;17.50;79.00;;;;;;5043946;28;20557;-80
2023/10/07 12:02:58;;;;;;;10.23;5.23;;;17.50;78.80;;;;;;5063249;28;20457;-82
2023/10/07 12:05:27;;;;;;;9.87;4.90;;;17.50;78.90;;;;;;5064712;28;20515;-82
2023/10/07 12:07:56;;;;;;;11.77;4.53;;;17.50;78.80;;;;;;5061938;28;20442;-82
2023/10/07 12:10:24;;;;;;;11.73;5.10;;;17.50;78.70;;;;;;5052292;28;20446;-82
2023/10/07 12:12:53;;;;;;;12.30;6.23;;;17.50;78.70;;;;;;5052079;28;20454;-80
2023/10/07 12:15:22;;;;;;;9.60;4.77;;;17.50;78.80;;;;;;5065330;28;20458;-81
2023/10/07 12:17:50;;;;;;;10.13;4.60;;;17.60;78.70;;;;;;5061825;28;20449;-81
2023/10/07 12:20:21;;;;;;;9.07;4.30;;;17.60;78.70;;;;;;5064112;28;20531;-81
2023/10/07 12:22:50;;;;;;;11.50;4.87;;;17.60;78.60;;;;;;5044950;28;20454;-81
2023/10/07 12:25:18;;;;;;;13.27;4.90;;;17.70;78.60;;;;;;5047936;28;20457;-82
2023/10/07 12:27:48;;;;;;;10.33;4.73;;;17.70;78.50;;;;;;5057877;28;20445;-80
2023/10/07 12:30:21;;;;;;;9.30;4.40;;;17.80;78.50;;;;;;5063730;28;20479;-81
2023/10/07 12:32:49;;;;;;;11.10;4.90;;;17.80;78.40;;;;;;5060568;28;20466;-82
2023/10/07 12:35:21;;;;;;;14.63;4.90;;;17.80;78.30;;;;;;5043191;28;20557;-82
2023/10/07 12:37:52;;;;;;;12.27;5.37;;;17.90;78.10;;;;;;5060012;28;20457;-81
2023/10/07 12:40:20;;;;;;;12.03;5.10;;;17.90;78.10;;;;;;5039878;28;20458;-81
2023/10/07 12:42:51;;;;;;;11.30;4.20;;;18.00;78.20;;;;;;5046234;28;20450;-83
2023/10/07 12:45:20;;;;;;;14.37;5.27;;;18.00;78.20;;;;;;5066260;28;20462;-80
2023/10/07 12:47:51;;;;;;;11.37;5.17;;;18.10;78.20;;;;;;5049591;28;20457;-81
2023/10/07 12:50:24;;;;;;;10.93;5.23;;;18.20;78.00;;;;;;5066183;28;21002;-80
2023/10/07 12:52:55;;;;;;;14.53;5.23;;;18.30;77.80;;;;;;5064838;28;20461;-81
2023/10/07 12:55:24;;;;;;;9.70;4.90;;;18.30;77.50;;;;;;5046170;28;20446;-82
2023/10/07 12:57:53;;;;;;;9.60;5.03;;;18.30;77.40;;;;;;5057528;28;20502;-81
2023/10/07 13:00:22;;;;;;;11.73;5.00;;;18.20;77.30;;;;;;5067635;28;20445;-81
2023/10/07 13:02:52;;;;;;;12.20;5.47;;;18.20;77.30;;;;;;5063379;28;22056;-83
2023/10/07 13:05:23;;;;;;;11.00;5.30;;;18.20;77.20;;;;;;5062747;28;20565;-82
2023/10/07 13:07:53;;;;;;;9.70;4.80;;;18.20;77.20;;;;;;5059040;28;20674;-84
2023/10/07 13:10:24;;;;;;;9.60;4.87;;;18.20;77.00;;;;;;5053254;28;20556;-82
2023/10/07 13:12:55;;;;;;;12.20;5.50;;;18.20;77.00;;;;;;5041937;28;20471;-80
2023/10/07 13:15:30;;;;;;;11.60;5.00;;;18.20;76.90;;;;;;5063584;28;20531;-89
2023/10/07 13:17:59;;;;;;;11.57;5.07;;;18.10;77.00;;;;;;5045774;28;20556;-81